Main page
METAR-TAF:

METAR-TAF

Airports :

Beaver Island Airport

Beaver Island, Michigan, United States

latitude: 45-41-32N, longitude: 085-33-59W, elevation: 669 ft

Current weather observation

The report was made 28 minutes ago, at 19:35 UTC
Wind 6 mph from the Northeast
Temperature 39°F
Humidity 28%
Pressure 30.32 in. Hg
Visibility: 10 miles
Clear sky

METAR: KSJX 241935Z AUTO 05005KT 10SM CLR 04/M13 A3032 RMK AO2 T00441131

Time: 16:03 (20:03 UTC)


TAF: missing

Weather observations and forecasts of more than 4000 airports (METAR and TAF reports).

The available stations are represented by yellow and red dots on the map.

Hover mouse over dot to see the name of the station.

Then click to see weather observations and forecasts.

To change the map : click on the green buttons with a black cross to zoom in, on the green button with a dash to zoom out, or on the green arrows for adjacent maps.


METAR-TAF: